Time;durP1;ratioP1;P1;durP2;ratioP2;P2;SDS_P1;SDS_P2;PMS_P1;PMS_P2;Temp;Humidity;BMP_temperature;BMP_pressure;BME280_temperature;BME280_humidity;BME280_pressure;Samples;Min_cycle;Max_cycle;Signal;HPM_P1;HPM_P2
2023/03/29 00:02:01;;;;;;;3.42;1.33;;;2.40;99.90;;;;;;5100754;28;20074;-48
2023/03/29 00:04:28;;;;;;;5.07;2.20;;;2.40;99.90;;;;;;5091981;28;20051;-48
2023/03/29 00:06:55;;;;;;;3.50;2.13;;;2.40;99.90;;;;;;5092153;28;20384;-50
2023/03/29 00:09:25;;;;;;;4.75;2.05;;;2.40;99.90;;;;;;5105175;28;20172;-49
2023/03/29 00:11:52;;;;;;;7.25;1.95;;;2.40;99.90;;;;;;5112421;28;20499;-48
2023/03/29 00:14:19;;;;;;;2.25;1.48;;;2.40;99.90;;;;;;5112245;28;20082;-48
2023/03/29 00:16:45;;;;;;;3.45;1.73;;;2.40;99.90;;;;;;5104808;28;20043;-48
2023/03/29 00:19:12;;;;;;;3.42;1.70;;;2.40;99.90;;;;;;5111908;28;20407;-49
2023/03/29 00:21:39;;;;;;;3.08;1.88;;;2.40;99.90;;;;;;5111953;28;20569;-48
2023/03/29 00:24:06;;;;;;;3.58;1.80;;;2.40;99.90;;;;;;5111873;28;20561;-48
2023/03/29 00:26:33;;;;;;;2.65;1.83;;;2.40;99.90;;;;;;5104017;28;20116;-48
2023/03/29 00:28:59;;;;;;;2.60;1.55;;;2.40;99.90;;;;;;5094219;28;20558;-48
2023/03/29 00:31:27;;;;;;;4.50;1.90;;;2.50;99.90;;;;;;5090776;28;20043;-49
2023/03/29 00:33:54;;;;;;;3.40;2.17;;;2.50;99.90;;;;;;5105799;28;20054;-48
2023/03/29 00:36:22;;;;;;;7.97;2.10;;;2.50;99.90;;;;;;5090723;28;20533;-48
2023/03/29 00:38:48;;;;;;;4.60;2.05;;;2.50;99.90;;;;;;5091089;28;20052;-48
2023/03/29 00:41:15;;;;;;;3.17;2.00;;;2.50;99.90;;;;;;5091573;28;20048;-49
2023/03/29 00:43:57;;;;;;;3.33;2.47;;;2.60;99.90;;;;;;5086277;28;20105;-49
2023/03/29 00:46:25;;;;;;;3.83;2.28;;;2.60;99.90;;;;;;5091643;28;20040;-48
2023/03/29 00:48:56;;;;;;;2.20;1.67;;;2.60;99.90;;;;;;5090934;28;20063;-49
2023/03/29 00:51:26;;;;;;;4.13;2.60;;;2.60;99.90;;;;;;5102072;28;20044;-48
2023/03/29 00:53:57;;;;;;;5.40;2.72;;;2.60;99.90;;;;;;5093179;28;20092;-48
2023/03/29 00:56:30;;;;;;;6.10;2.08;;;2.60;99.90;;;;;;5093722;28;20039;-48
2023/03/29 00:59:08;;;;;;;4.28;2.50;;;2.60;99.90;;;;;;5104543;28;20040;-48
2023/03/29 01:01:56;;;;;;;4.55;2.40;;;2.60;99.90;;;;;;5088144;28;20047;-48
2023/03/29 01:04:29;;;;;;;5.18;1.92;;;2.60;99.90;;;;;;5108892;28;20040;-49
2023/03/29 01:07:12;;;;;;;4.18;2.60;;;2.60;99.90;;;;;;5109086;28;20480;-48
2023/03/29 01:09:43;;;;;;;8.15;2.53;;;2.70;99.90;;;;;;5110799;28;20044;-47
2023/03/29 01:12:16;;;;;;;3.42;2.05;;;2.70;99.90;;;;;;5093168;28;20436;-49
2023/03/29 01:15:14;;;;;;;3.63;2.28;;;2.70;99.90;;;;;;5061906;22;20148;-49
2023/03/29 01:17:48;;;;;;;4.10;2.05;;;2.80;99.90;;;;;;5028990;28;20050;-48
2023/03/29 01:20:32;;;;;;;4.10;2.70;;;2.80;99.90;;;;;;5026481;28;20048;-49
2023/03/29 01:23:30;;;;;;;5.07;2.38;;;2.70;99.90;;;;;;5029514;28;20045;-49
2023/03/29 01:26:16;;;;;;;3.03;2.40;;;2.80;99.90;;;;;;5019516;28;20176;-49
2023/03/29 01:29:10;;;;;;;3.03;2.15;;;2.80;99.90;;;;;;5030049;28;20049;-50
2023/03/29 01:31:40;;;;;;;3.92;2.00;;;2.80;99.90;;;;;;5017138;28;20045;-50
2023/03/29 01:34:21;;;;;;;2.90;1.85;;;2.80;99.90;;;;;;5028194;28;20056;-50
2023/03/29 01:36:57;;;;;;;2.47;1.77;;;2.70;99.90;;;;;;5017377;28;20564;-49
2023/03/29 01:39:24;;;;;;;2.88;1.88;;;2.70;99.90;;;;;;5019372;28;20104;-49
2023/03/29 01:42:09;;;;;;;3.30;1.38;;;2.60;99.90;;;;;;5010652;28;20506;-49
2023/03/29 01:44:46;;;;;;;3.83;2.10;;;2.60;99.90;;;;;;5006613;28;20050;-51
2023/03/29 01:47:19;;;;;;;3.17;2.03;;;2.50;99.90;;;;;;5010947;28;20068;-50
2023/03/29 01:49:54;;;;;;;2.35;1.83;;;2.50;99.90;;;;;;5029118;28;20490;-49
2023/03/29 01:52:59;;;;;;;3.60;2.00;;;2.50;99.90;;;;;;5023047;28;20037;-52
2023/03/29 01:55:31;;;;;;;3.95;2.20;;;2.40;99.90;;;;;;5007916;28;20041;-49
2023/03/29 01:58:00;;;;;;;5.25;2.63;;;2.40;99.90;;;;;;5029008;28;20084;-51
2023/03/29 02:00:29;;;;;;;3.63;2.30;;;2.40;99.90;;;;;;5024644;28;20050;-50
2023/03/29 02:03:02;;;;;;;3.25;2.30;;;2.40;99.90;;;;;;5008355;28;20038;-50
2023/03/29 02:05:30;;;;;;;5.55;2.63;;;2.30;99.90;;;;;;5011449;28;20045;-49
2023/03/29 02:07:59;;;;;;;4.22;2.50;;;2.30;99.90;;;;;;5009957;28;20395;-49
2023/03/29 02:10:26;;;;;;;5.28;2.80;;;2.30;99.90;;;;;;5017285;28;20395;-50
2023/03/29 02:12:54;;;;;;;3.40;2.22;;;2.30;99.90;;;;;;5029006;28;20104;-49
2023/03/29 02:15:22;;;;;;;4.85;2.03;;;2.20;99.90;;;;;;5030592;28;20103;-49
2023/03/29 02:17:49;;;;;;;4.75;2.40;;;2.20;99.90;;;;;;5018339;28;20447;-50
2023/03/29 02:20:26;;;;;;;4.85;2.42;;;2.10;99.90;;;;;;5009245;28;20511;-48
2023/03/29 02:23:05;;;;;;;6.50;2.30;;;2.20;99.90;;;;;;5011148;28;20077;-50
2023/03/29 02:25:32;;;;;;;2.97;2.22;;;2.20;99.90;;;;;;5021831;28;20047;-52
2023/03/29 02:27:59;;;;;;;;;;;2.20;99.90;;;;;;5032837;28;20395;-51
2023/03/29 02:31:08;;;;;;;3.67;2.28;;;2.20;99.90;;;;;;5032178;28;19971;-49
2023/03/29 02:33:50;;;;;;;3.88;2.30;;;2.10;99.90;;;;;;5022972;28;20141;-49
2023/03/29 02:36:23;;;;;;;3.85;2.53;;;2.10;99.90;;;;;;5012509;28;20046;-49
2023/03/29 02:38:52;;;;;;;3.83;2.42;;;2.10;99.90;;;;;;5012496;28;20140;-49
2023/03/29 02:41:20;;;;;;;5.57;2.30;;;2.10;99.90;;;;;;5012026;28;20046;-50
2023/03/29 02:43:48;;;;;;;3.78;2.40;;;2.10;99.90;;;;;;5019149;28;20091;-51
2023/03/29 02:46:17;;;;;;;4.07;2.60;;;2.20;99.90;;;;;;5032583;28;20049;-52
2023/03/29 02:48:45;;;;;;;3.22;1.90;;;2.20;99.90;;;;;;5031771;28;20413;-49
2023/03/29 02:51:24;;;;;;;3.63;2.05;;;2.20;99.90;;;;;;5020289;28;20108;-49
2023/03/29 02:54:03;;;;;;;3.95;2.42;;;2.20;99.90;;;;;;5012825;28;20045;-49
2023/03/29 02:56:43;;;;;;;4.22;2.50;;;2.30;99.90;;;;;;5012955;28;20053;-49
2023/03/29 02:59:12;;;;;;;3.88;2.47;;;2.30;99.90;;;;;;5012860;28;20443;-48
2023/03/29 03:01:43;;;;;;;5.32;3.00;;;2.30;99.90;;;;;;5032361;28;20060;-51
2023/03/29 03:04:11;;;;;;;4.43;3.05;;;2.40;99.90;;;;;;5025598;28;20046;-49
2023/03/29 03:06:39;;;;;;;6.72;3.75;;;2.40;99.90;;;;;;5032334;28;20034;-51
2023/03/29 03:09:08;;;;;;;5.32;3.15;;;2.40;99.90;;;;;;5031052;28;20132;-52
2023/03/29 03:11:39;;;;;;;6.32;3.63;;;2.30;99.90;;;;;;5026955;28;20052;-49
2023/03/29 03:14:06;;;;;;;5.70;3.75;;;2.30;99.90;;;;;;5013964;28;20041;-53
2023/03/29 03:16:34;;;;;;;8.27;3.95;;;2.30;99.90;;;;;;5031286;28;20744;-49
2023/03/29 03:19:02;;;;;;;5.55;3.28;;;2.30;99.90;;;;;;5032557;28;20091;-50
2023/03/29 03:21:29;;;;;;;7.05;3.75;;;2.20;99.90;;;;;;5005666;28;20045;-49
2023/03/29 03:23:58;;;;;;;5.45;3.45;;;2.20;99.90;;;;;;5011759;28;20073;-49
2023/03/29 03:26:28;;;;;;;5.88;3.63;;;2.10;99.90;;;;;;5011733;28;20739;-51
2023/03/29 03:28:56;;;;;;;5.55;3.40;;;2.10;99.90;;;;;;5010602;28;20081;-50
2023/03/29 03:31:52;;;;;;;5.28;3.17;;;2.10;99.90;;;;;;4939950;28;20158;-52
2023/03/29 03:34:38;;;;;;;4.63;2.65;;;2.10;99.90;;;;;;5011720;28;20045;-50
2023/03/29 03:37:05;;;;;;;4.55;2.28;;;2.10;99.90;;;;;;5010263;28;20052;-51
2023/03/29 03:39:34;;;;;;;4.25;2.70;;;2.10;99.90;;;;;;5010466;28;20042;-48
2023/03/29 03:42:02;;;;;;;4.35;2.80;;;2.00;99.90;;;;;;5011550;28;20052;-49
2023/03/29 03:44:37;;;;;;;5.40;2.78;;;2.00;99.90;;;;;;5008641;28;20050;-50
2023/03/29 03:47:24;;;;;;;4.78;2.30;;;2.10;99.90;;;;;;5012485;28;20056;-49
2023/03/29 03:49:53;;;;;;;3.72;2.28;;;2.10;99.90;;;;;;5006327;28;20097;-49
2023/03/29 03:52:24;;;;;;;3.35;2.13;;;2.10;99.90;;;;;;5023593;28;20045;-50
2023/03/29 03:54:51;;;;;;;3.47;2.10;;;2.20;99.90;;;;;;5010485;28;20065;-50
2023/03/29 03:57:38;;;;;;;3.00;1.88;;;2.20;99.90;;;;;;5007127;28;20038;-49
2023/03/29 04:00:18;;;;;;;3.08;1.70;;;2.30;99.90;;;;;;5018498;28;20042;-48
2023/03/29 04:02:53;;;;;;;3.25;1.67;;;2.40;99.90;;;;;;5002235;28;20054;-49
2023/03/29 04:05:20;;;;;;;2.95;1.33;;;2.50;99.90;;;;;;5011203;28;20045;-50
2023/03/29 04:07:47;;;;;;;2.33;1.42;;;2.60;99.90;;;;;;5009854;28;20062;-49
2023/03/29 04:10:57;;;;;;;3.08;1.80;;;2.70;99.90;;;;;;5011608;28;20418;-49
2023/03/29 04:13:30;;;;;;;4.93;1.73;;;2.70;99.90;;;;;;5010795;28;20402;-49
2023/03/29 04:16:17;;;;;;;2.72;1.63;;;2.70;99.90;;;;;;5010251;28;20304;-49
2023/03/29 04:18:44;;;;;;;4.05;1.92;;;2.70;99.90;;;;;;5013084;28;20116;-50
2023/03/29 04:21:11;;;;;;;2.90;1.70;;;2.70;99.90;;;;;;5010502;28;20567;-52
2023/03/29 04:23:38;;;;;;;2.30;1.95;;;2.70;99.90;;;;;;5003474;28;20069;-48
2023/03/29 04:26:05;;;;;;;2.95;1.80;;;2.60;99.90;;;;;;5019876;28;20049;-51
2023/03/29 04:28:42;;;;;;;3.30;2.20;;;2.60;99.90;;;;;;5005745;28;20489;-52
2023/03/29 04:31:14;;;;;;;4.90;1.80;;;2.60;99.90;;;;;;5014864;28;20041;-52
2023/03/29 04:33:50;;;;;;;3.67;2.20;;;2.60;99.90;;;;;;5009387;28;20124;-50
2023/03/29 04:36:18;;;;;;;4.70;2.20;;;2.60;99.90;;;;;;5010646;28;20046;-49
2023/03/29 04:38:46;;;;;;;2.75;1.70;;;2.60;99.90;;;;;;5008878;28;21445;-51
2023/03/29 04:41:15;;;;;;;4.22;2.35;;;2.60;99.90;;;;;;5010262;28;20065;-49
2023/03/29 04:44:01;;;;;;;3.75;2.25;;;2.60;99.90;;;;;;5008315;28;20054;-50
2023/03/29 04:46:31;;;;;;;6.97;2.38;;;2.70;99.90;;;;;;5014473;28;20075;-54
2023/03/29 04:49:16;;;;;;;4.13;2.17;;;2.70;99.90;;;;;;5031303;28;20099;-51
2023/03/29 04:51:47;;;;;;;3.55;2.30;;;2.60;99.90;;;;;;5016402;28;20474;-51
2023/03/29 04:54:19;;;;;;;6.53;2.60;;;2.60;99.90;;;;;;5029442;28;20045;-50
2023/03/29 04:57:08;;;;;;;5.07;2.67;;;2.60;99.90;;;;;;5012009;28;20038;-50
2023/03/29 04:59:53;;;;;;;4.15;2.80;;;2.50;99.90;;;;;;5008535;28;20053;-50
2023/03/29 05:02:42;;;;;;;4.70;3.00;;;2.50;99.90;;;;;;5009713;28;20045;-50
2023/03/29 05:05:11;;;;;;;5.30;3.33;;;2.50;99.90;;;;;;5020262;28;20578;-50
2023/03/29 05:07:39;;;;;;;6.15;3.38;;;2.50;99.90;;;;;;5011448;28;20440;-50
2023/03/29 05:10:08;;;;;;;6.03;3.60;;;2.50;99.90;;;;;;5029205;28;20041;-51
2023/03/29 05:12:35;;;;;;;5.68;3.33;;;2.50;99.90;;;;;;5028301;28;20136;-49
2023/03/29 05:15:07;;;;;;;5.45;3.65;;;2.50;99.90;;;;;;5025287;28;20402;-50
2023/03/29 05:17:34;;;;;;;6.82;4.30;;;2.50;99.90;;;;;;5017343;28;20080;-51
2023/03/29 05:20:11;;;;;;;6.63;4.03;;;2.50;99.90;;;;;;5009724;28;20423;-51
2023/03/29 05:22:40;;;;;;;9.35;4.57;;;2.50;99.90;;;;;;5015954;28;20107;-50
2023/03/29 05:25:11;;;;;;;7.13;3.38;;;2.50;99.90;;;;;;5029563;28;20053;-50
2023/03/29 05:27:40;;;;;;;8.25;4.18;;;2.50;99.90;;;;;;5029318;28;20064;-51
2023/03/29 05:30:10;;;;;;;9.13;4.03;;;2.60;99.90;;;;;;5029607;28;20041;-51
2023/03/29 05:32:56;;;;;;;3.87;2.60;;;2.60;99.90;;;;;;5009907;28;20125;-50
2023/03/29 05:35:25;;;;;;;8.50;4.22;;;2.60;99.90;;;;;;5000493;28;20471;-51
2023/03/29 05:37:54;;;;;;;4.75;3.40;;;2.60;99.90;;;;;;5012636;28;20049;-52
2023/03/29 05:40:21;;;;;;;8.23;4.15;;;2.60;99.90;;;;;;5009067;28;20046;-50
2023/03/29 05:43:08;;;;;;;7.88;4.47;;;2.60;99.90;;;;;;5007621;28;20054;-51
2023/03/29 05:45:35;;;;;;;8.10;4.38;;;2.60;99.90;;;;;;5004096;28;20081;-51
2023/03/29 05:48:02;;;;;;;7.32;3.72;;;2.60;99.90;;;;;;4997099;28;20050;-50
2023/03/29 05:50:30;;;;;;;8.05;3.92;;;2.60;99.90;;;;;;5009257;28;20036;-51
2023/03/29 05:52:57;;;;;;;6.80;3.92;;;2.60;99.90;;;;;;5004928;28;20049;-50
2023/03/29 05:55:24;;;;;;;6.68;4.10;;;2.60;99.90;;;;;;5007084;28;20421;-48
2023/03/29 05:57:51;;;;;;;7.00;3.40;;;2.60;99.90;;;;;;5010897;28;20092;-49
2023/03/29 06:00:22;;;;;;;7.95;4.32;;;2.60;99.90;;;;;;5007528;28;20042;-51
2023/03/29 06:02:57;;;;;;;6.25;4.00;;;2.50;99.90;;;;;;5010885;28;20042;-52
2023/03/29 06:05:39;;;;;;;8.68;4.28;;;2.60;99.90;;;;;;5013261;28;20100;-49
2023/03/29 06:08:06;;;;;;;8.95;4.65;;;2.60;99.90;;;;;;5014889;28;20038;-48
2023/03/29 06:11:02;;;;;;;5.78;3.75;;;2.60;99.90;;;;;;5010890;28;20089;-53
2023/03/29 06:13:49;;;;;;;7.95;4.10;;;2.60;99.90;;;;;;5027188;28;20417;-52
2023/03/29 06:16:16;;;;;;;7.03;4.43;;;2.60;99.90;;;;;;5015883;28;20045;-52
2023/03/29 06:18:43;;;;;;;7.95;4.50;;;2.70;99.90;;;;;;5027753;28;20037;-49
2023/03/29 06:21:10;;;;;;;7.10;4.03;;;2.70;99.90;;;;;;5032472;28;20068;-50
2023/03/29 06:23:38;;;;;;;5.30;3.30;;;2.80;99.90;;;;;;5016504;28;20041;-50
2023/03/29 06:26:06;;;;;;;5.50;3.30;;;2.80;99.90;;;;;;5032786;28;20387;-53
2023/03/29 06:28:34;;;;;;;6.15;3.85;;;2.80;99.90;;;;;;5031705;28;20081;-51
2023/03/29 06:31:03;;;;;;;4.85;3.20;;;2.80;99.90;;;;;;5029307;28;20045;-51
2023/03/29 06:33:36;;;;;;;6.70;3.83;;;2.90;99.90;;;;;;5026749;28;20037;-50
2023/03/29 06:36:14;;;;;;;6.17;3.60;;;3.00;99.90;;;;;;5013435;28;20502;-51
2023/03/29 06:38:44;;;;;;;4.88;2.72;;;3.00;99.90;;;;;;5009563;28;20050;-51
2023/03/29 06:41:35;;;;;;;4.15;2.70;;;3.00;99.90;;;;;;5007426;28;20066;-53
2023/03/29 06:44:05;;;;;;;4.68;3.35;;;3.00;99.90;;;;;;5013874;28;20093;-52
2023/03/29 06:46:37;;;;;;;5.00;2.47;;;3.10;99.90;;;;;;5011710;28;20049;-50
2023/03/29 06:49:07;;;;;;;5.15;2.60;;;3.10;99.90;;;;;;5016438;28;20078;-50
2023/03/29 06:51:44;;;;;;;4.90;2.97;;;3.20;99.90;;;;;;5030873;28;20372;-48
2023/03/29 06:54:12;;;;;;;;;;;3.30;99.90;;;;;;5025468;28;20049;-52
2023/03/29 06:56:47;;;;;;;4.10;3.08;;;3.40;99.90;;;;;;5031802;28;19971;-51
2023/03/29 06:59:16;;;;;;;6.65;3.58;;;3.50;99.90;;;;;;5027331;28;20075;-51
2023/03/29 07:02:02;;;;;;;6.72;3.10;;;3.50;99.90;;;;;;5033478;28;20176;-53
2023/03/29 07:04:46;;;;;;;5.07;2.55;;;3.50;99.90;;;;;;5031993;28;20506;-50
2023/03/29 07:07:21;;;;;;;5.60;3.13;;;3.60;99.90;;;;;;5028856;28;20429;-52
2023/03/29 07:09:54;;;;;;;6.78;3.65;;;3.60;99.90;;;;;;5008890;28;20498;-50
2023/03/29 07:12:39;;;;;;;6.75;3.10;;;3.60;99.90;;;;;;5014052;28;20155;-51
2023/03/29 07:15:08;;;;;;;6.05;3.20;;;3.50;99.90;;;;;;5039629;22;20083;-48
2023/03/29 07:17:58;;;;;;;7.28;3.97;;;3.40;99.90;;;;;;5031361;28;20079;-48
2023/03/29 07:20:25;;;;;;;7.28;3.72;;;3.40;99.90;;;;;;5033269;28;20061;-48
2023/03/29 07:23:05;;;;;;;9.52;3.65;;;3.40;99.90;;;;;;5035228;28;20567;-47
2023/03/29 07:25:32;;;;;;;6.63;3.72;;;3.30;99.90;;;;;;5033943;28;20041;-48
2023/03/29 07:27:59;;;;;;;8.68;4.57;;;3.30;99.90;;;;;;5053088;28;20086;-48
2023/03/29 07:30:29;;;;;;;10.45;4.80;;;3.30;99.90;;;;;;5031928;28;20028;-49
2023/03/29 07:33:30;;;;;;;5.95;3.10;;;3.40;99.90;;;;;;5040350;28;20469;-47
2023/03/29 07:36:02;;;;;;;4.57;3.15;;;3.40;99.90;;;;;;5033531;28;20047;-48
2023/03/29 07:38:29;;;;;;;7.10;2.90;;;3.40;99.90;;;;;;5032513;28;20074;-49
2023/03/29 07:41:07;;;;;;;4.22;2.58;;;3.40;99.90;;;;;;5034870;28;20501;-48
2023/03/29 07:43:43;;;;;;;4.15;2.50;;;3.40;99.90;;;;;;5034806;28;20057;-48
2023/03/29 07:46:11;;;;;;;4.32;2.70;;;3.50;99.90;;;;;;5051186;28;20056;-47
2023/03/29 07:48:38;;;;;;;3.45;2.03;;;3.60;99.90;;;;;;5033454;28;20094;-47
2023/03/29 07:51:07;;;;;;;4.15;2.60;;;3.60;99.90;;;;;;5034331;28;20601;-48
2023/03/29 07:53:48;;;;;;;2.85;2.10;;;3.60;99.90;;;;;;5031904;28;20501;-48
2023/03/29 07:56:34;;;;;;;5.00;1.90;;;3.60;99.90;;;;;;5052196;28;20067;-47
2023/03/29 07:59:26;;;;;;;3.88;2.05;;;3.60;99.90;;;;;;5050286;28;20505;-47
2023/03/29 08:02:08;;;;;;;4.00;2.25;;;3.70;99.90;;;;;;5033275;28;20049;-47
2023/03/29 08:04:40;;;;;;;4.43;2.53;;;3.80;99.90;;;;;;5034711;28;20057;-49
2023/03/29 08:07:23;;;;;;;4.20;2.58;;;4.00;99.90;;;;;;5051962;28;20045;-48
2023/03/29 08:10:21;;;;;;;2.85;2.15;;;4.10;99.90;;;;;;5033261;28;20525;-49
2023/03/29 08:13:07;;;;;;;8.65;4.22;;;4.30;99.90;;;;;;5034322;28;20049;-46
2023/03/29 08:15:54;;;;;;;9.68;4.65;;;4.30;99.90;;;;;;5052541;28;20059;-47
2023/03/29 08:18:29;;;;;;;7.28;3.17;;;4.40;99.90;;;;;;5031898;28;20456;-46
2023/03/29 08:21:00;;;;;;;6.82;1.80;;;4.60;99.90;;;;;;5050888;28;20064;-48
2023/03/29 08:23:28;;;;;;;4.63;1.80;;;4.70;99.90;;;;;;5032698;28;20468;-48
2023/03/29 08:26:10;;;;;;;3.45;2.10;;;4.70;99.90;;;;;;5033883;28;20056;-52
2023/03/29 08:28:38;;;;;;;4.47;2.80;;;4.80;99.90;;;;;;5032587;28;20564;-50
2023/03/29 08:31:06;;;;;;;7.47;3.78;;;4.90;99.90;;;;;;5030569;28;20049;-48
2023/03/29 08:33:34;;;;;;;6.18;3.33;;;4.90;99.90;;;;;;5033638;28;20433;-49
2023/03/29 08:36:27;;;;;;;6.28;2.90;;;5.00;99.90;;;;;;5043197;28;20133;-50
2023/03/29 08:38:56;;;;;;;6.20;3.08;;;5.00;99.90;;;;;;5033064;28;20049;-48
2023/03/29 08:41:31;;;;;;;;;;;5.00;99.90;;;;;;5033746;28;20068;-47
2023/03/29 08:44:09;;;;;;;8.15;4.25;;;4.90;99.90;;;;;;5033831;28;19927;-48
2023/03/29 08:47:09;;;;;;;9.65;4.05;;;4.90;99.90;;;;;;5034029;28;20056;-47
2023/03/29 08:49:43;;;;;;;5.65;3.45;;;4.80;99.90;;;;;;5032157;28;20106;-49
2023/03/29 08:52:30;;;;;;;7.70;3.83;;;4.80;99.90;;;;;;5033521;28;20049;-48
2023/03/29 08:54:59;;;;;;;6.70;4.32;;;4.70;99.90;;;;;;5028816;28;20088;-47
2023/03/29 08:57:32;;;;;;;10.18;4.63;;;4.60;99.90;;;;;;5051778;28;20044;-48
2023/03/29 09:00:22;;;;;;;6.20;4.47;;;4.60;99.90;;;;;;5031540;28;20045;-49
2023/03/29 09:02:52;;;;;;;7.90;4.03;;;4.60;99.90;;;;;;5051574;28;20087;-47
2023/03/29 09:05:28;;;;;;;7.57;4.45;;;4.60;99.90;;;;;;5030458;28;20401;-49
2023/03/29 09:08:22;;;;;;;7.45;4.40;;;4.60;99.90;;;;;;5047788;28;20063;-47
2023/03/29 09:11:15;;;;;;;7.20;4.40;;;4.70;99.90;;;;;;5033176;28;20094;-47
2023/03/29 09:14:02;;;;;;;10.18;4.93;;;4.60;99.90;;;;;;5032444;28;20048;-48
2023/03/29 09:16:38;;;;;;;8.27;5.05;;;4.70;99.90;;;;;;5026581;28;20048;-47
2023/03/29 09:19:38;;;;;;;14.07;8.10;;;4.60;99.90;;;;;;5031279;28;20047;-48
2023/03/29 09:22:35;;;;;;;13.15;5.97;;;4.70;99.90;;;;;;5031906;28;20143;-47
2023/03/29 09:25:08;;;;;;;7.95;5.03;;;4.80;99.90;;;;;;5031905;28;20049;-48
2023/03/29 09:27:43;;;;;;;9.13;5.05;;;4.80;99.90;;;;;;5038577;28;20049;-47
2023/03/29 09:30:25;;;;;;;13.65;7.40;;;4.80;99.90;;;;;;5024747;28;20048;-47
2023/03/29 09:33:10;;;;;;;13.55;7.03;;;4.80;99.90;;;;;;5032651;28;20060;-48
2023/03/29 09:36:12;;;;;;;7.95;5.57;;;4.80;99.90;;;;;;5029924;28;20123;-47
2023/03/29 09:38:42;;;;;;;8.85;5.00;;;4.90;99.90;;;;;;5035775;28;20045;-47
2023/03/29 09:41:21;;;;;;;8.30;5.20;;;4.90;99.90;;;;;;5034102;28;20140;-48
2023/03/29 09:43:50;;;;;;;9.93;6.05;;;4.90;99.90;;;;;;5037051;28;20071;-52
2023/03/29 09:46:42;;;;;;;9.13;5.50;;;5.10;99.90;;;;;;5029910;28;20052;-47
2023/03/29 09:49:17;;;;;;;7.93;5.28;;;5.40;99.90;;;;;;5053558;28;20448;-47
2023/03/29 09:51:48;;;;;;;7.70;5.03;;;5.60;99.90;;;;;;5034585;28;20051;-47
2023/03/29 09:54:16;;;;;;;7.50;5.10;;;5.70;99.90;;;;;;5036455;28;20469;-48
2023/03/29 09:57:02;;;;;;;8.65;5.15;;;5.90;99.90;;;;;;5054420;28;20424;-48
2023/03/29 09:59:29;;;;;;;7.18;4.30;;;6.00;99.90;;;;;;5035575;28;20090;-47
2023/03/29 10:02:11;;;;;;;5.75;4.60;;;6.10;99.90;;;;;;5054024;28;20483;-47
2023/03/29 10:04:41;;;;;;;8.60;4.82;;;6.30;99.90;;;;;;5052513;28;20052;-50
2023/03/29 10:07:17;;;;;;;5.05;3.00;;;6.40;99.90;;;;;;5036430;28;20052;-47
2023/03/29 10:09:50;;;;;;;7.97;5.05;;;6.40;99.90;;;;;;5035986;28;20106;-47
2023/03/29 10:12:19;;;;;;;9.02;5.20;;;6.50;99.90;;;;;;5035417;28;20045;-48
2023/03/29 10:14:52;;;;;;;6.95;4.28;;;6.70;99.90;;;;;;5053852;28;20037;-49
2023/03/29 10:17:25;;;;;;;9.50;3.58;;;6.60;99.90;;;;;;5053682;28;20041;-47
2023/03/29 10:19:56;;;;;;;6.03;4.30;;;6.60;99.90;;;;;;5052033;28;20049;-49
2023/03/29 10:22:30;;;;;;;8.32;4.70;;;6.70;99.90;;;;;;5053511;28;20111;-48
2023/03/29 10:24:57;;;;;;;6.50;4.45;;;6.70;99.90;;;;;;5052579;28;20099;-48
2023/03/29 10:27:27;;;;;;;8.93;4.00;;;6.70;99.90;;;;;;5053739;28;20170;-48
2023/03/29 10:29:57;;;;;;;6.53;3.60;;;6.60;99.90;;;;;;5053340;28;20499;-47
2023/03/29 10:32:35;;;;;;;4.97;3.17;;;6.70;99.90;;;;;;5052790;28;20091;-48
2023/03/29 10:35:18;;;;;;;7.70;3.78;;;6.70;99.90;;;;;;5053891;28;20041;-48
2023/03/29 10:37:50;;;;;;;6.30;3.95;;;6.70;99.90;;;;;;5036413;28;20044;-49
2023/03/29 10:40:25;;;;;;;7.60;3.85;;;6.80;99.90;;;;;;5052101;28;20551;-47
2023/03/29 10:42:56;;;;;;;7.32;3.55;;;6.80;99.90;;;;;;5053709;28;20448;-51
2023/03/29 10:45:27;;;;;;;6.13;3.78;;;6.70;99.90;;;;;;5053772;28;20481;-48
2023/03/29 10:47:56;;;;;;;6.30;3.85;;;6.70;99.90;;;;;;5051388;28;20100;-47
2023/03/29 10:50:30;;;;;;;7.05;3.65;;;6.70;99.90;;;;;;5053814;28;20451;-47
2023/03/29 10:52:57;;;;;;;5.45;3.60;;;6.70;99.90;;;;;;5035863;28;20099;-47
2023/03/29 10:55:32;;;;;;;5.03;3.83;;;6.70;99.90;;;;;;5053364;28;20557;-48
2023/03/29 10:58:25;;;;;;;7.75;3.92;;;6.70;99.90;;;;;;5052866;28;20171;-49
2023/03/29 11:00:55;;;;;;;8.75;3.90;;;6.90;99.90;;;;;;5051928;28;20493;-48
2023/03/29 11:03:48;;;;;;;4.95;3.33;;;7.10;99.90;;;;;;5046042;28;20119;-48
2023/03/29 11:06:25;;;;;;;5.78;3.50;;;7.20;99.90;;;;;;5044315;28;20084;-47
2023/03/29 11:09:27;;;;;;;25.83;8.25;;;7.20;99.90;;;;;;5051275;28;20037;-48
2023/03/29 11:12:16;;;;;;;6.82;4.03;;;7.20;99.90;;;;;;5042098;28;20505;-50
2023/03/29 11:14:50;;;;;;;7.35;4.65;;;7.60;99.90;;;;;;5052493;28;20508;-49
2023/03/29 11:17:52;;;;;;;15.05;6.43;;;7.60;99.90;;;;;;5051878;28;20493;-49
2023/03/29 11:20:23;;;;;;;5.68;4.05;;;7.60;99.90;;;;;;5052558;28;20033;-48
2023/03/29 11:22:55;;;;;;;8.13;4.45;;;7.70;99.90;;;;;;5053595;28;20056;-48
2023/03/29 11:25:25;;;;;;;10.40;5.03;;;7.70;99.90;;;;;;5050478;28;20091;-48
2023/03/29 11:28:19;;;;;;;10.25;4.97;;;7.50;99.90;;;;;;5035210;28;20063;-48
2023/03/29 11:31:14;;;;;;;5.95;4.18;;;7.20;99.90;;;;;;5051375;28;20045;-48
2023/03/29 11:33:57;;;;;;;9.05;3.78;;;7.20;99.90;;;;;;5031391;28;20053;-49
2023/03/29 11:36:37;;;;;;;4.53;2.90;;;7.00;99.90;;;;;;5014281;28;20046;-48
2023/03/29 11:39:37;;;;;;;7.07;4.78;;;7.20;99.90;;;;;;5050891;28;20048;-50
2023/03/29 11:42:20;;;;;;;7.55;3.17;;;7.60;99.90;;;;;;5052110;28;20316;-48
2023/03/29 11:44:51;;;;;;;5.38;2.88;;;7.80;99.90;;;;;;5052935;28;20049;-48
2023/03/29 11:47:22;;;;;;;5.78;2.97;;;8.10;99.90;;;;;;5050247;28;20386;-48
2023/03/29 11:50:18;;;;;;;5.18;2.65;;;8.40;99.90;;;;;;5052099;28;20048;-47
2023/03/29 11:52:52;;;;;;;3.33;2.38;;;8.50;99.90;;;;;;5050916;28;20040;-50
2023/03/29 11:55:27;;;;;;;6.38;2.30;;;8.60;99.90;;;;;;5052634;28;20398;-47
2023/03/29 11:58:03;;;;;;;3.60;2.25;;;8.40;99.90;;;;;;5050035;28;20033;-50
2023/03/29 12:00:47;;;;;;;2.88;2.13;;;8.40;99.90;;;;;;5051612;28;20033;-48
2023/03/29 12:03:20;;;;;;;4.00;1.88;;;8.50;99.90;;;;;;5049861;28;20029;-48
2023/03/29 12:05:52;;;;;;;4.88;2.67;;;8.50;99.90;;;;;;5052193;28;20500;-50
2023/03/29 12:08:28;;;;;;;3.88;2.72;;;8.50;99.90;;;;;;5050991;28;20049;-47
2023/03/29 12:11:22;;;;;;;3.50;1.77;;;8.60;99.90;;;;;;5052404;28;20049;-48
2023/03/29 12:14:03;;;;;;;2.30;1.45;;;8.80;99.90;;;;;;5049429;28;20067;-47
2023/03/29 12:16:36;;;;;;;3.17;1.50;;;8.90;99.90;;;;;;5051554;28;20541;-47
2023/03/29 12:19:30;;;;;;;2.40;1.30;;;9.00;99.90;;;;;;5050641;28;20113;-47
2023/03/29 12:21:59;;;;;;;1.92;1.33;;;8.90;99.90;;;;;;5032949;28;20044;-47
2023/03/29 12:24:30;;;;;;;3.08;1.58;;;8.90;99.90;;;;;;5032415;28;20048;-48
2023/03/29 12:27:08;;;;;;;2.78;1.52;;;8.90;99.90;;;;;;5051347;28;20123;-50
2023/03/29 12:29:46;;;;;;;2.22;1.70;;;8.70;99.90;;;;;;5032047;28;20068;-47
2023/03/29 12:32:27;;;;;;;3.58;1.90;;;8.80;99.90;;;;;;5051609;28;20052;-48
2023/03/29 12:35:22;;;;;;;2.17;1.42;;;9.30;99.90;;;;;;5031930;28;20412;-49
2023/03/29 12:38:26;;;;;;;;;;;9.60;99.90;;;;;;5022895;28;20516;-47
2023/03/29 12:41:36;;;;;;;1.60;0.98;;;9.70;99.90;;;;;;5051501;28;20010;-49
2023/03/29 12:44:23;;;;;;;3.65;1.60;;;9.70;99.90;;;;;;5050397;28;20410;-48
2023/03/29 12:47:22;;;;;;;3.60;1.60;;;9.60;99.90;;;;;;5051630;28;20405;-48
2023/03/29 12:49:57;;;;;;;2.72;1.52;;;9.70;99.90;;;;;;5033686;28;20045;-49
2023/03/29 12:52:33;;;;;;;4.05;1.77;;;9.90;99.90;;;;;;5050191;28;20047;-48
2023/03/29 12:55:03;;;;;;;4.53;2.33;;;10.10;99.90;;;;;;5051224;28;20041;-48
2023/03/29 12:57:43;;;;;;;4.43;2.67;;;10.00;99.90;;;;;;5051306;28;20037;-49
2023/03/29 13:00:25;;;;;;;1.92;1.70;;;10.10;99.90;;;;;;5048332;28;20069;-48
2023/03/29 13:03:04;;;;;;;4.25;1.90;;;9.90;99.90;;;;;;5051348;28;20048;-49
2023/03/29 13:05:35;;;;;;;2.22;1.70;;;10.20;99.90;;;;;;5049473;28;20075;-50
2023/03/29 13:08:32;;;;;;;6.63;2.30;;;10.40;99.90;;;;;;5050923;28;20132;-49
2023/03/29 13:10:59;;;;;;;5.35;2.15;;;10.50;99.90;;;;;;5031009;28;20185;-48
2023/03/29 13:13:31;;;;;;;4.32;2.13;;;10.70;99.90;;;;;;5050599;28;20079;-48
2023/03/29 13:16:14;;;;;;;3.25;2.10;;;10.80;99.90;;;;;;5112356;22;20081;-50
2023/03/29 13:19:01;;;;;;;3.47;2.03;;;11.00;99.90;;;;;;5098341;27;20089;-49
2023/03/29 13:21:43;;;;;;;4.40;2.28;;;10.90;99.90;;;;;;5090763;28;20496;-49
2023/03/29 13:25:01;;;;;;;4.65;1.92;;;10.70;99.90;;;;;;5096280;28;20051;-50
2023/03/29 13:27:38;;;;;;;2.78;1.50;;;10.80;99.90;;;;;;5040091;28;20056;-49
2023/03/29 13:30:18;;;;;;;1.92;1.58;;;11.00;99.90;;;;;;5091092;28;20036;-49
2023/03/29 13:32:58;;;;;;;3.60;1.92;;;10.80;99.90;;;;;;5098603;28;20043;-50
2023/03/29 13:36:03;;;;;;;5.63;1.80;;;10.70;99.90;;;;;;5111260;28;20135;-51
2023/03/29 13:38:31;;;;;;;6.03;2.08;;;10.40;99.90;;;;;;5109815;28;20054;-50
2023/03/29 13:40:59;;;;;;;5.60;2.55;;;10.50;99.90;;;;;;5102220;28;20059;-51
2023/03/29 13:43:33;;;;;;;4.85;1.63;;;10.70;99.90;;;;;;5090220;28;20040;-51
2023/03/29 13:45:59;;;;;;;4.63;1.88;;;10.90;99.90;;;;;;5091168;28;20102;-49